Time;durP1;ratioP1;P1;durP2;ratioP2;P2;SDS_P1;SDS_P2;PMS_P1;PMS_P2;Temp;Humidity;BMP_temperature;BMP_pressure;BME280_temperature;BME280_humidity;BME280_pressure;Samples;Min_cycle;Max_cycle;Signal;HPM_P1;HPM_P2
2022/01/06 00:01:52;;;;;;;3.13;1.30;;;4.20;99.90;;;;;;5013713;28;20192;-69
2022/01/06 00:04:17;;;;;;;3.50;1.20;;;4.20;99.90;;;;;;5014066;28;20207;-70
2022/01/06 00:06:43;;;;;;;4.93;1.70;;;4.20;99.90;;;;;;5013933;28;20169;-69
2022/01/06 00:09:11;;;;;;;1.73;1.63;;;4.20;99.90;;;;;;5013903;28;20156;-70
2022/01/06 00:11:36;;;;;;;0.77;0.77;;;4.20;99.90;;;;;;5013720;28;20338;-69
2022/01/06 00:14:16;;;;;;;1.47;1.03;;;4.20;99.90;;;;;;5013777;28;20407;-70
2022/01/06 00:24:25;;;;;;;0.90;0.83;;;4.20;99.90;;;;;;5013619;28;20223;-70
2022/01/06 00:26:51;;;;;;;1.80;1.23;;;4.20;99.90;;;;;;5013297;28;20415;-71
2022/01/06 00:29:17;;;;;;;1.73;1.33;;;4.20;99.90;;;;;;5013631;28;20940;-69
2022/01/06 00:31:43;;;;;;;0.80;0.70;;;4.20;99.90;;;;;;5013238;28;20184;-71
2022/01/06 00:34:10;;;;;;;1.40;1.30;;;4.20;99.90;;;;;;5013615;28;20417;-69
2022/01/06 00:36:45;;;;;;;1.13;1.03;;;4.10;99.90;;;;;;5013515;28;20176;-71
2022/01/06 00:39:11;;;;;;;0.80;0.80;;;4.00;99.90;;;;;;5013466;28;20403;-70
2022/01/06 00:41:37;;;;;;;0.70;0.70;;;3.90;99.90;;;;;;5013314;28;20459;-69
2022/01/06 00:44:04;;;;;;;0.80;0.80;;;3.90;99.90;;;;;;5013337;28;20451;-70
2022/01/06 00:46:30;;;;;;;2.00;0.87;;;3.80;99.90;;;;;;5013279;28;20420;-70
2022/01/06 00:48:56;;;;;;;0.70;0.70;;;3.60;99.90;;;;;;5013061;28;20427;-70
2022/01/06 00:51:22;;;;;;;1.80;1.70;;;3.50;99.90;;;;;;5012937;28;20200;-70
2022/01/06 00:53:48;;;;;;;1.97;1.20;;;3.40;99.90;;;;;;5012915;28;20169;-70
2022/01/06 00:56:13;;;;;;;1.43;0.97;;;3.30;99.90;;;;;;5013125;28;20549;-71
2022/01/06 00:58:39;;;;;;;1.00;1.00;;;3.20;99.90;;;;;;5012876;28;20482;-70
2022/01/06 01:01:04;;;;;;;0.70;0.70;;;3.20;99.90;;;;;;5016422;28;20558;-70
2022/01/06 01:03:30;;;;;;;2.03;1.00;;;3.10;99.90;;;;;;5016270;28;20196;-70
2022/01/06 01:05:56;;;;;;;2.50;2.03;;;3.10;99.90;;;;;;5015222;28;20211;-71
2022/01/06 01:08:25;;;;;;;1.97;1.07;;;3.10;99.90;;;;;;5014615;28;20164;-71
2022/01/06 01:10:53;;;;;;;2.63;1.27;;;3.00;99.90;;;;;;5013071;28;20422;-70
2022/01/06 01:13:27;;;;;;;1.23;1.10;;;2.90;99.90;;;;;;5012445;28;20437;-70
2022/01/06 01:15:56;;;;;;;1.90;1.53;;;2.90;99.90;;;;;;5012420;28;20913;-70
2022/01/06 01:18:23;;;;;;;0.90;0.90;;;2.80;99.90;;;;;;5012705;28;20408;-70
2022/01/06 01:20:50;;;;;;;1.33;1.23;;;2.70;99.90;;;;;;5012500;28;20493;-69
2022/01/06 01:23:17;;;;;;;1.00;0.90;;;2.70;99.90;;;;;;5012196;28;20447;-70
2022/01/06 01:25:44;;;;;;;1.20;1.20;;;2.60;99.90;;;;;;5012148;28;20407;-69
2022/01/06 01:28:11;;;;;;;2.00;0.90;;;2.50;99.90;;;;;;5012212;28;20431;-69
2022/01/06 01:30:53;;;;;;;1.37;1.10;;;2.40;99.90;;;;;;5012061;28;20443;-70
2022/01/06 01:33:18;;;;;;;1.30;1.20;;;2.30;99.90;;;;;;5012086;28;20442;-69
2022/01/06 01:35:44;;;;;;;1.20;1.10;;;2.30;99.90;;;;;;5012048;28;20434;-69
2022/01/06 01:38:10;;;;;;;0.63;0.63;;;2.20;99.90;;;;;;5012377;28;20173;-69
2022/01/06 01:40:36;;;;;;;1.00;1.00;;;2.20;99.90;;;;;;5011949;28;20204;-69
2022/01/06 01:43:02;;;;;;;1.37;1.27;;;2.10;99.90;;;;;;5012114;28;20459;-69
2022/01/06 01:45:30;;;;;;;1.13;1.03;;;2.10;99.90;;;;;;5012028;28;20399;-70
2022/01/06 01:47:59;;;;;;;0.87;0.87;;;2.10;99.90;;;;;;5012012;28;20902;-70
2022/01/06 01:50:25;;;;;;;1.43;1.20;;;2.10;99.90;;;;;;5011848;28;20459;-70
2022/01/06 01:52:53;;;;;;;0.90;0.90;;;2.20;99.90;;;;;;5011907;28;20838;-70
2022/01/06 01:55:27;;;;;;;1.90;0.70;;;2.20;99.90;;;;;;5011890;28;20987;-69
2022/01/06 01:57:53;;;;;;;0.80;0.73;;;2.30;99.90;;;;;;5012129;28;20414;-70
2022/01/06 02:00:21;;;;;;;0.80;0.80;;;2.30;99.90;;;;;;5012506;28;20424;-70
2022/01/06 02:02:46;;;;;;;0.70;0.70;;;2.30;99.90;;;;;;5012216;28;20877;-70
2022/01/06 02:05:12;;;;;;;0.70;0.70;;;2.30;99.90;;;;;;5013357;28;20412;-70
2022/01/06 02:07:39;;;;;;;2.80;1.63;;;2.40;99.90;;;;;;5012365;28;20183;-70
2022/01/06 02:10:06;;;;;;;1.57;1.30;;;2.40;99.90;;;;;;5012052;28;20183;-70
2022/01/06 02:12:35;;;;;;;1.13;1.03;;;2.40;99.90;;;;;;5011866;28;20414;-69
2022/01/06 02:15:00;;;;;;;3.30;0.90;;;2.40;99.90;;;;;;5011791;28;20502;-69
2022/01/06 02:17:26;;;;;;;0.70;0.70;;;2.40;99.90;;;;;;5011883;28;20888;-69
2022/01/06 02:19:56;;;;;;;0.77;0.77;;;2.40;99.90;;;;;;5010634;28;20172;-70
2022/01/06 02:22:22;;;;;;;1.20;1.07;;;2.40;99.90;;;;;;5011789;28;20258;-69
2022/01/06 02:24:48;;;;;;;0.80;0.80;;;2.50;99.90;;;;;;5011458;28;20471;-69
2022/01/06 02:27:14;;;;;;;0.70;0.70;;;2.40;99.90;;;;;;5011705;28;20423;-70
2022/01/06 02:29:40;;;;;;;2.87;1.07;;;2.50;99.90;;;;;;5011069;28;20905;-70
2022/01/06 02:32:11;;;;;;;0.80;0.80;;;2.50;99.90;;;;;;5011453;28;20423;-70
2022/01/06 02:34:36;;;;;;;0.70;0.70;;;2.50;99.90;;;;;;5011599;28;20172;-70
2022/01/06 02:37:03;;;;;;;0.60;0.60;;;2.50;99.90;;;;;;5011637;28;20477;-69
2022/01/06 02:39:29;;;;;;;1.63;1.53;;;2.50;99.90;;;;;;5011481;28;20248;-69
2022/01/06 02:41:55;;;;;;;1.30;0.93;;;2.50;99.90;;;;;;5011405;28;20468;-69
2022/01/06 02:44:23;;;;;;;2.40;1.27;;;2.50;99.90;;;;;;5011317;28;20206;-69
2022/01/06 02:46:49;;;;;;;0.70;0.70;;;2.50;99.90;;;;;;5011387;28;20655;-70
2022/01/06 02:49:14;;;;;;;1.23;1.13;;;2.50;99.90;;;;;;5011246;28;20434;-70
2022/01/06 02:51:41;;;;;;;0.80;0.77;;;2.50;99.90;;;;;;5013281;28;20250;-70
2022/01/06 02:54:07;;;;;;;1.20;1.10;;;2.50;99.90;;;;;;5015147;28;20599;-69
2022/01/06 02:56:33;;;;;;;0.70;0.70;;;2.50;99.90;;;;;;5030364;28;20419;-71
2022/01/06 02:58:58;;;;;;;3.37;0.73;;;2.50;99.90;;;;;;5015141;28;20168;-70
2022/01/06 03:01:24;;;;;;;2.10;1.63;;;2.50;99.90;;;;;;5015119;28;20480;-71
2022/01/06 03:03:49;;;;;;;2.03;0.83;;;2.50;99.90;;;;;;5014969;28;20204;-69
2022/01/06 03:06:15;;;;;;;9.03;1.93;;;2.50;99.90;;;;;;5014881;28;20175;-69
2022/01/06 03:08:40;;;;;;;0.70;0.70;;;2.40;99.90;;;;;;5014794;28;20176;-69
2022/01/06 03:11:07;;;;;;;0.80;0.80;;;2.40;99.90;;;;;;5014839;28;20193;-70
2022/01/06 03:13:33;;;;;;;0.70;0.70;;;2.40;99.90;;;;;;5014884;28;20164;-69
2022/01/06 03:15:59;;;;;;;10.23;1.00;;;2.40;99.90;;;;;;5014930;28;20417;-69
2022/01/06 03:18:24;;;;;;;0.87;0.70;;;2.30;99.90;;;;;;5014926;28;20314;-69
2022/01/06 03:20:50;;;;;;;1.00;1.00;;;2.30;99.90;;;;;;5014775;28;20431;-70
2022/01/06 03:23:15;;;;;;;0.80;0.70;;;2.30;99.90;;;;;;5014685;28;20203;-70
2022/01/06 03:25:41;;;;;;;2.70;0.90;;;2.20;99.90;;;;;;5014847;28;20187;-70
2022/01/06 03:28:06;;;;;;;1.03;1.03;;;2.20;99.90;;;;;;5013405;28;20172;-70
2022/01/06 03:30:32;;;;;;;0.60;0.60;;;2.10;99.90;;;;;;5014651;28;20651;-70
2022/01/06 03:32:57;;;;;;;0.70;0.70;;;2.00;99.90;;;;;;5014402;28;20184;-69
2022/01/06 03:35:25;;;;;;;1.33;1.03;;;1.90;99.90;;;;;;5014330;28;20255;-70
2022/01/06 03:37:51;;;;;;;0.80;0.80;;;1.90;99.90;;;;;;5014142;28;20194;-71
2022/01/06 03:40:17;;;;;;;0.70;0.70;;;1.80;99.90;;;;;;5014112;28;20426;-70
2022/01/06 03:42:42;;;;;;;1.77;1.07;;;1.80;99.90;;;;;;5012632;28;20203;-70
2022/01/06 03:45:11;;;;;;;0.80;0.80;;;1.70;99.90;;;;;;5014142;28;20407;-70
2022/01/06 03:47:37;;;;;;;0.73;0.70;;;1.70;99.90;;;;;;5014231;28;20172;-70
2022/01/06 03:50:03;;;;;;;0.60;0.60;;;1.60;99.90;;;;;;5013894;28;20396;-71
2022/01/06 03:52:28;;;;;;;0.87;0.87;;;1.40;99.90;;;;;;5013849;28;20276;-70
2022/01/06 03:54:54;;;;;;;1.63;0.87;;;1.40;99.90;;;;;;5013912;28;20418;-69
2022/01/06 03:57:19;;;;;;;6.57;0.90;;;1.30;99.90;;;;;;5013947;28;20195;-69
2022/01/06 03:59:45;;;;;;;0.90;0.90;;;1.20;99.90;;;;;;5013982;28;20524;-71
2022/01/06 04:02:11;;;;;;;0.60;0.60;;;1.20;99.90;;;;;;5013218;28;20208;-70
2022/01/06 04:04:37;;;;;;;2.73;0.90;;;1.10;99.90;;;;;;5013583;28;20258;-70
2022/01/06 04:07:04;;;;;;;0.70;0.70;;;1.10;99.90;;;;;;5013876;28;20263;-70
2022/01/06 04:09:30;;;;;;;0.70;0.70;;;1.00;99.90;;;;;;5013937;28;20415;-70
2022/01/06 04:11:55;;;;;;;0.60;0.60;;;1.00;99.90;;;;;;5013410;28;20481;-70
2022/01/06 04:14:21;;;;;;;3.43;1.23;;;1.00;99.90;;;;;;5013829;28;20741;-71
2022/01/06 04:16:46;;;;;;;1.20;1.13;;;0.90;99.90;;;;;;5013661;28;20176;-70
2022/01/06 04:19:12;;;;;;;1.03;1.03;;;0.80;99.90;;;;;;5013911;28;20176;-70
2022/01/06 04:21:37;;;;;;;1.00;1.00;;;0.80;99.90;;;;;;5013988;28;20716;-70
2022/01/06 04:24:03;;;;;;;0.67;0.67;;;0.80;99.90;;;;;;5013934;28;20273;-69
2022/01/06 04:26:29;;;;;;;0.90;0.90;;;0.70;99.90;;;;;;5013887;28;20283;-70
2022/01/06 04:28:55;;;;;;;0.70;0.70;;;0.70;99.90;;;;;;5013904;28;20407;-70
2022/01/06 04:31:20;;;;;;;0.67;0.67;;;0.60;99.90;;;;;;5013881;28;20191;-70
2022/01/06 04:33:46;;;;;;;0.83;0.80;;;0.60;99.90;;;;;;5013762;28;20210;-69
2022/01/06 04:36:11;;;;;;;2.63;0.87;;;0.60;99.90;;;;;;5013461;28;20299;-71
2022/01/06 04:38:37;;;;;;;1.10;1.00;;;0.50;99.90;;;;;;5013489;28;20168;-70
2022/01/06 04:41:03;;;;;;;0.60;0.60;;;0.60;99.90;;;;;;5013446;28;20198;-70
2022/01/06 04:43:29;;;;;;;0.70;0.70;;;0.50;99.90;;;;;;5013265;28;20192;-70
2022/01/06 04:45:54;;;;;;;1.77;1.03;;;0.50;99.90;;;;;;5013498;28;20414;-69
2022/01/06 04:48:20;;;;;;;0.70;0.70;;;0.50;99.90;;;;;;5013282;28;20189;-70
2022/01/06 04:50:45;;;;;;;0.73;0.73;;;0.50;99.90;;;;;;5012927;28;20203;-70
2022/01/06 04:53:11;;;;;;;0.70;0.70;;;0.40;99.90;;;;;;5013184;28;20247;-70
2022/01/06 04:55:36;;;;;;;0.60;0.60;;;0.40;99.90;;;;;;5013425;28;20551;-70
2022/01/06 04:58:02;;;;;;;1.23;1.13;;;0.40;99.90;;;;;;5014004;28;20168;-71
2022/01/06 05:00:27;;;;;;;0.80;0.80;;;0.40;99.90;;;;;;5015495;28;20215;-70
2022/01/06 05:02:53;;;;;;;0.90;0.90;;;0.30;99.90;;;;;;5016425;28;20192;-69
2022/01/06 05:05:18;;;;;;;0.67;0.67;;;0.30;99.90;;;;;;5015182;28;20161;-70
2022/01/06 05:07:44;;;;;;;0.70;0.70;;;0.30;99.90;;;;;;5013007;28;20623;-69
2022/01/06 05:10:10;;;;;;;0.87;0.87;;;0.20;99.90;;;;;;5013042;28;20657;-70
2022/01/06 05:12:40;;;;;;;0.60;0.60;;;0.20;99.90;;;;;;5013104;28;20431;-69
2022/01/06 05:15:06;;;;;;;2.70;0.93;;;0.20;99.90;;;;;;5012163;28;20410;-70
2022/01/06 05:17:31;;;;;;;0.70;0.70;;;0.30;99.90;;;;;;5012933;28;20411;-70
2022/01/06 05:19:57;;;;;;;0.80;0.80;;;0.20;99.90;;;;;;5012995;28;20168;-70
2022/01/06 05:22:23;;;;;;;1.37;1.30;;;0.20;99.90;;;;;;5013213;28;20163;-70
2022/01/06 05:24:48;;;;;;;0.70;0.70;;;0.10;99.90;;;;;;5013124;28;20164;-70
2022/01/06 05:27:13;;;;;;;0.80;0.80;;;0.20;99.90;;;;;;5013015;28;20661;-71
2022/01/06 05:29:39;;;;;;;0.70;0.70;;;0.10;99.90;;;;;;5013223;28;20156;-71
2022/01/06 05:32:05;;;;;;;1.17;1.07;;;0.10;99.90;;;;;;5012793;28;20278;-70
2022/01/06 05:34:30;;;;;;;1.63;0.90;;;0.00;99.90;;;;;;5012768;28;20545;-70
2022/01/06 05:36:56;;;;;;;1.33;1.30;;;0.00;99.90;;;;;;5011438;28;20287;-70
2022/01/06 05:39:21;;;;;;;1.77;0.70;;;0.00;99.90;;;;;;5012659;28;20595;-71
2022/01/06 05:41:47;;;;;;;0.83;0.83;;;0.00;99.90;;;;;;5012541;28;20666;-70
2022/01/06 05:44:12;;;;;;;2.10;1.23;;;0.10;99.90;;;;;;5012540;28;20287;-70
2022/01/06 05:46:38;;;;;;;0.70;0.70;;;0.10;99.90;;;;;;5012613;28;20181;-70
2022/01/06 05:49:03;;;;;;;0.60;0.60;;;0.10;99.90;;;;;;5012630;28;20175;-71
2022/01/06 05:51:29;;;;;;;1.23;1.10;;;0.00;99.90;;;;;;5012351;28;20211;-71
2022/01/06 05:53:54;;;;;;;2.10;1.13;;;0.00;99.90;;;;;;5012695;28;20547;-70
2022/01/06 05:56:21;;;;;;;0.70;0.70;;;0.00;99.90;;;;;;5012532;28;20176;-71
2022/01/06 05:58:46;;;;;;;1.00;0.80;;;0.10;99.90;;;;;;5012525;28;20256;-71
2022/01/06 06:01:12;;;;;;;0.80;0.80;;;0.10;99.90;;;;;;5012418;28;20530;-70
2022/01/06 06:03:37;;;;;;;0.70;0.70;;;0.10;99.90;;;;;;5011781;28;20588;-71
2022/01/06 06:06:03;;;;;;;1.47;1.37;;;0.10;99.90;;;;;;5012228;28;20164;-72
2022/01/06 06:08:28;;;;;;;0.97;0.80;;;0.00;99.90;;;;;;5007756;28;20710;-70
2022/01/06 06:10:54;;;;;;;0.60;0.60;;;0.10;99.90;;;;;;5010331;28;20199;-69
2022/01/06 06:13:19;;;;;;;0.70;0.70;;;0.00;99.90;;;;;;5010885;28;20180;-70
2022/01/06 06:15:45;;;;;;;0.70;0.70;;;0.00;99.90;;;;;;5011901;28;20168;-71
2022/01/06 06:18:12;;;;;;;0.70;0.70;;;0.00;99.90;;;;;;5010744;28;20693;-70
2022/01/06 06:20:41;;;;;;;0.60;0.60;;;0.00;99.90;;;;;;5012369;28;20192;-72
2022/01/06 06:23:07;;;;;;;0.70;0.70;;;0.00;99.90;;;;;;5011771;28;20819;-70
2022/01/06 06:25:33;;;;;;;0.73;0.73;;;0.00;99.90;;;;;;5029906;28;20881;-70
2022/01/06 06:27:58;;;;;;;1.63;1.53;;;0.00;99.90;;;;;;5018317;28;20398;-71
2022/01/06 06:30:24;;;;;;;0.70;0.70;;;0.00;99.90;;;;;;5018185;28;20509;-71
2022/01/06 06:32:49;;;;;;;0.70;0.70;;;0.00;99.90;;;;;;5033225;28;20706;-71
2022/01/06 06:35:15;;;;;;;0.70;0.70;;;0.00;99.90;;;;;;5018176;28;20813;-71
2022/01/06 06:37:40;;;;;;;0.80;0.80;;;-0.10;99.90;;;;;;5018436;28;20175;-73
2022/01/06 06:40:06;;;;;;;0.70;0.70;;;-0.10;99.90;;;;;;5018478;28;20183;-70
2022/01/06 06:42:32;;;;;;;1.40;1.13;;;0.00;99.90;;;;;;5018163;28;20706;-70
2022/01/06 06:44:58;;;;;;;0.90;0.70;;;-0.10;99.90;;;;;;5018231;28;20506;-70
2022/01/06 06:47:23;;;;;;;1.27;1.27;;;0.00;99.90;;;;;;5017961;28;20638;-72
2022/01/06 06:49:49;;;;;;;2.10;1.30;;;0.10;99.90;;;;;;5018113;28;20458;-70
2022/01/06 06:52:15;;;;;;;0.70;0.70;;;0.00;99.90;;;;;;5017818;28;20291;-70
2022/01/06 06:54:40;;;;;;;1.17;0.90;;;-0.10;99.90;;;;;;5018087;28;20230;-71
2022/01/06 06:57:06;;;;;;;0.70;0.70;;;-0.20;99.90;;;;;;5018020;28;20267;-71
2022/01/06 06:59:32;;;;;;;3.63;0.97;;;-0.10;99.90;;;;;;5017804;28;20180;-71
2022/01/06 07:01:58;;;;;;;2.60;1.00;;;-0.10;99.90;;;;;;5017581;28;20475;-71
2022/01/06 07:04:23;;;;;;;1.10;0.90;;;-0.10;99.90;;;;;;5017949;28;20196;-71
2022/01/06 07:06:49;;;;;;;1.10;1.00;;;-0.10;99.90;;;;;;5017817;28;20168;-71
2022/01/06 07:09:14;;;;;;;0.80;0.80;;;-0.10;99.90;;;;;;5017946;28;20179;-70
2022/01/06 07:11:40;;;;;;;0.90;0.90;;;-0.20;99.90;;;;;;5017815;28;20184;-70
2022/01/06 07:14:05;;;;;;;0.70;0.70;;;-0.10;99.90;;;;;;5017935;28;20195;-70
2022/01/06 07:16:31;;;;;;;0.70;0.70;;;-0.10;99.90;;;;;;5027373;28;20259;-70
2022/01/06 07:18:56;;;;;;;0.60;0.60;;;-0.10;99.90;;;;;;5037608;28;20164;-70
2022/01/06 07:21:22;;;;;;;0.60;0.60;;;-0.10;99.90;;;;;;5037521;28;20198;-71
2022/01/06 07:23:47;;;;;;;0.70;0.70;;;-0.10;99.90;;;;;;5037575;28;20210;-71
2022/01/06 07:26:13;;;;;;;0.73;0.73;;;0.00;99.90;;;;;;5037398;28;20533;-71
2022/01/06 07:28:38;;;;;;;0.70;0.70;;;0.00;99.90;;;;;;5037776;28;20688;-71
2022/01/06 07:31:04;;;;;;;0.80;0.80;;;0.00;99.90;;;;;;5052808;28;20251;-71
2022/01/06 07:33:31;;;;;;;1.77;0.90;;;-0.10;99.90;;;;;;5037518;28;20246;-71
2022/01/06 07:35:56;;;;;;;0.70;0.70;;;-0.10;99.90;;;;;;5037470;28;20645;-71
2022/01/06 07:38:22;;;;;;;0.73;0.73;;;0.00;99.90;;;;;;5033498;28;20406;-71
2022/01/06 07:40:48;;;;;;;1.13;1.13;;;-0.10;99.90;;;;;;5034528;28;20205;-71
2022/01/06 07:43:13;;;;;;;0.90;0.90;;;-0.10;99.90;;;;;;5034320;28;20529;-71
2022/01/06 07:45:39;;;;;;;1.40;1.03;;;0.00;99.90;;;;;;5034132;28;20164;-70
2022/01/06 07:48:15;;;;;;;1.00;1.00;;;0.00;99.90;;;;;;5034490;28;20193;-70
2022/01/06 07:50:40;;;;;;;0.70;0.70;;;0.00;99.90;;;;;;5034008;28;20199;-70
2022/01/06 07:53:06;;;;;;;1.00;0.90;;;0.00;99.90;;;;;;5034186;28;20410;-70
2022/01/06 07:55:31;;;;;;;12.83;1.53;;;0.00;99.90;;;;;;5034012;28;20558;-70
2022/01/06 07:57:58;;;;;;;0.83;0.83;;;0.10;99.90;;;;;;5034023;28;20180;-71
2022/01/06 08:00:24;;;;;;;0.80;0.80;;;0.00;99.90;;;;;;5033786;28;20278;-70
2022/01/06 08:02:50;;;;;;;8.83;1.20;;;0.10;99.90;;;;;;5033626;28;20612;-71
2022/01/06 08:05:16;;;;;;;1.27;1.27;;;0.10;99.90;;;;;;5033650;28;20183;-70
2022/01/06 08:07:42;;;;;;;3.80;1.03;;;0.10;99.90;;;;;;5033804;28;20176;-71
2022/01/06 08:10:09;;;;;;;0.70;0.70;;;0.10;99.90;;;;;;5033763;28;20912;-72
2022/01/06 08:12:35;;;;;;;0.70;0.70;;;0.10;99.90;;;;;;5033698;28;20967;-72
2022/01/06 08:15:01;;;;;;;0.70;0.70;;;0.20;99.90;;;;;;5033635;28;20442;-71
2022/01/06 08:17:26;;;;;;;0.90;0.90;;;0.20;99.90;;;;;;5033753;28;20494;-71
2022/01/06 08:19:52;;;;;;;0.60;0.60;;;0.20;99.90;;;;;;5033770;28;20233;-71
2022/01/06 08:22:21;;;;;;;1.30;0.67;;;0.30;99.90;;;;;;5033422;28;20190;-71
2022/01/06 08:24:47;;;;;;;0.80;0.80;;;0.30;99.90;;;;;;5033629;28;20289;-71
2022/01/06 08:27:12;;;;;;;1.27;1.17;;;0.30;99.90;;;;;;5033624;28;20411;-70
2022/01/06 08:29:39;;;;;;;1.07;0.97;;;0.40;99.90;;;;;;5033480;28;20473;-70
2022/01/06 08:32:06;;;;;;;0.70;0.70;;;0.40;99.90;;;;;;5033646;28;20195;-70
2022/01/06 08:34:31;;;;;;;1.33;0.90;;;0.40;99.90;;;;;;5033637;28;20422;-70
2022/01/06 08:36:57;;;;;;;0.80;0.80;;;0.50;99.90;;;;;;5033750;28;20410;-71
2022/01/06 08:39:22;;;;;;;0.80;0.80;;;0.60;99.90;;;;;;5033455;28;20168;-71
2022/01/06 08:41:51;;;;;;;5.20;1.27;;;0.70;99.90;;;;;;5033208;28;20191;-71
2022/01/06 08:44:16;;;;;;;1.73;1.13;;;0.80;99.90;;;;;;5033516;28;20203;-71
2022/01/06 08:46:42;;;;;;;0.70;0.70;;;1.00;99.90;;;;;;5030616;28;21258;-71
2022/01/06 08:49:11;;;;;;;0.60;0.60;;;1.00;99.90;;;;;;5019717;28;20192;-71
2022/01/06 08:51:38;;;;;;;1.90;1.00;;;1.00;99.90;;;;;;5031680;28;20208;-72
2022/01/06 08:54:03;;;;;;;1.83;0.90;;;1.00;99.90;;;;;;5033676;28;20507;-71
2022/01/06 08:56:29;;;;;;;0.77;0.77;;;1.10;99.90;;;;;;5034016;28;20846;-71
2022/01/06 08:58:55;;;;;;;0.90;0.80;;;1.20;99.90;;;;;;5034178;28;20458;-72
2022/01/06 09:01:20;;;;;;;2.60;1.00;;;1.30;99.90;;;;;;5024401;28;20191;-71
2022/01/06 09:03:46;;;;;;;0.67;0.67;;;1.40;99.90;;;;;;5009680;28;20954;-71
2022/01/06 09:06:11;;;;;;;8.37;1.00;;;1.40;99.90;;;;;;5014637;28;20677;-71
2022/01/06 09:08:37;;;;;;;0.67;0.67;;;1.40;99.90;;;;;;5017388;28;20558;-70
2022/01/06 09:11:02;;;;;;;0.80;0.70;;;1.30;99.90;;;;;;5020978;28;20201;-70
2022/01/06 09:13:28;;;;;;;2.20;0.90;;;1.30;99.90;;;;;;5012939;28;20180;-71
2022/01/06 09:15:54;;;;;;;1.00;0.80;;;1.20;99.90;;;;;;5016969;28;20308;-72
2022/01/06 09:18:19;;;;;;;1.73;1.43;;;1.20;99.90;;;;;;5012501;28;20431;-71
2022/01/06 09:20:45;;;;;;;2.20;1.30;;;1.20;99.90;;;;;;5011018;28;20237;-71
2022/01/06 09:23:10;;;;;;;0.70;0.70;;;1.20;99.90;;;;;;5015264;28;20196;-72
2022/01/06 09:25:36;;;;;;;1.20;1.10;;;1.20;99.90;;;;;;5028789;28;20666;-70
2022/01/06 09:28:02;;;;;;;1.17;0.80;;;1.20;99.90;;;;;;5032076;28;20172;-71
2022/01/06 09:30:27;;;;;;;4.20;1.60;;;1.30;99.90;;;;;;5024168;28;20204;-71
2022/01/06 09:32:53;;;;;;;0.60;0.60;;;1.30;99.90;;;;;;5018619;28;20257;-70
2022/01/06 09:35:20;;;;;;;1.27;0.80;;;1.30;99.90;;;;;;5016521;28;20717;-71
2022/01/06 09:37:46;;;;;;;1.30;1.20;;;1.40;99.90;;;;;;5045372;28;20791;-70
2022/01/06 09:40:11;;;;;;;1.10;1.00;;;1.40;99.90;;;;;;5031979;28;20413;-70
2022/01/06 09:42:40;;;;;;;0.70;0.70;;;1.40;99.90;;;;;;5022500;28;20203;-70
2022/01/06 09:45:06;;;;;;;1.10;1.00;;;1.50;99.90;;;;;;5022516;28;20426;-70
2022/01/06 09:47:32;;;;;;;0.70;0.70;;;1.50;99.90;;;;;;5031995;28;20909;-71
2022/01/06 09:49:57;;;;;;;1.10;1.00;;;1.50;99.90;;;;;;5014816;28;20234;-71
2022/01/06 09:52:23;;;;;;;0.93;0.93;;;1.50;99.90;;;;;;5012267;28;20427;-71
2022/01/06 09:54:49;;;;;;;1.20;1.10;;;1.60;99.90;;;;;;5021109;28;20221;-70
2022/01/06 09:57:16;;;;;;;1.07;0.90;;;1.60;99.90;;;;;;5020875;28;20458;-71
2022/01/06 09:59:44;;;;;;;0.70;0.70;;;1.70;99.90;;;;;;5031208;28;20417;-70
2022/01/06 10:02:16;;;;;;;7.97;1.20;;;1.70;99.90;;;;;;5022583;28;20482;-72
2022/01/06 10:04:48;;;;;;;1.50;0.93;;;1.70;99.90;;;;;;5024924;28;20462;-70
2022/01/06 10:07:15;;;;;;;0.70;0.70;;;1.80;99.90;;;;;;5031719;28;20441;-70
2022/01/06 10:09:41;;;;;;;1.50;1.40;;;1.80;99.90;;;;;;5038513;28;20484;-70
2022/01/06 10:12:11;;;;;;;2.13;1.97;;;1.80;99.90;;;;;;5031650;28;20433;-71
2022/01/06 10:14:44;;;;;;;1.30;1.20;;;1.90;99.90;;;;;;5024720;28;20497;-70
2022/01/06 10:17:16;;;;;;;1.90;0.70;;;1.90;99.90;;;;;;5018255;28;20423;-70
2022/01/06 10:19:44;;;;;;;1.07;0.90;;;1.90;99.90;;;;;;5023073;28;20430;-70
2022/01/06 10:22:18;;;;;;;1.30;1.00;;;2.10;99.90;;;;;;5031117;28;20434;-70
2022/01/06 10:24:46;;;;;;;0.60;0.60;;;2.10;99.90;;;;;;5023352;28;20564;-70
2022/01/06 10:27:14;;;;;;;2.00;1.40;;;2.10;99.90;;;;;;5028274;28;20924;-71
2022/01/06 10:29:48;;;;;;;0.83;0.80;;;2.10;99.90;;;;;;5024520;28;20823;-70
2022/01/06 10:32:13;;;;;;;2.30;1.00;;;2.20;99.90;;;;;;5007087;28;20426;-71
2022/01/06 10:34:51;;;;;;;1.30;0.80;;;2.20;99.90;;;;;;5024953;28;20451;-75
2022/01/06 10:37:26;;;;;;;0.70;0.70;;;2.30;99.90;;;;;;5027664;28;20172;-70
2022/01/06 10:39:54;;;;;;;0.60;0.60;;;2.30;99.90;;;;;;5013024;28;20522;-71
2022/01/06 10:42:24;;;;;;;0.83;0.83;;;2.30;99.90;;;;;;5012061;28;20427;-72
2022/01/06 10:44:53;;;;;;;0.70;0.70;;;2.30;99.90;;;;;;5011965;28;20465;-75
2022/01/06 10:47:49;;;;;;;2.20;0.80;;;2.30;99.90;;;;;;5012102;28;20411;-75
2022/01/06 10:50:24;;;;;;;1.10;1.00;;;2.30;99.90;;;;;;5002815;28;20422;-70
2022/01/06 10:53:06;;;;;;;0.83;0.83;;;2.40;99.90;;;;;;5027791;28;20769;-70
2022/01/06 10:55:37;;;;;;;0.60;0.60;;;2.40;99.90;;;;;;5027501;28;20925;-69
2022/01/06 10:58:04;;;;;;;0.93;0.90;;;2.40;99.90;;;;;;5012043;28;20427;-70
2022/01/06 11:00:46;;;;;;;0.80;0.80;;;2.50;99.90;;;;;;5011778;28;20515;-70
2022/01/06 11:03:13;;;;;;;0.97;0.83;;;2.50;99.90;;;;;;5011723;28;20443;-70
2022/01/06 11:05:53;;;;;;;1.73;1.17;;;2.60;99.90;;;;;;5011183;28;20415;-70
2022/01/06 11:08:45;;;;;;;8.13;1.40;;;2.60;99.90;;;;;;5015569;28;20410;-73
2022/01/06 11:11:29;;;;;;;1.70;0.97;;;2.70;99.90;;;;;;4991759;28;20428;-70
2022/01/06 11:13:58;;;;;;;0.67;0.67;;;2.70;99.90;;;;;;4995627;28;20425;-69
2022/01/06 11:16:27;;;;;;;0.80;0.80;;;2.80;99.90;;;;;;4993972;28;20482;-70
2022/01/06 11:18:57;;;;;;;0.70;0.70;;;2.80;99.90;;;;;;4995048;28;20412;-70
2022/01/06 11:21:34;;;;;;;0.70;0.70;;;2.70;99.90;;;;;;4995383;28;20448;-70
2022/01/06 11:24:10;;;;;;;0.83;0.83;;;2.80;99.90;;;;;;4995359;28;20543;-70
2022/01/06 11:26:36;;;;;;;0.80;0.80;;;2.90;99.90;;;;;;4995354;28;20408;-71
2022/01/06 11:29:02;;;;;;;0.80;0.80;;;2.90;99.90;;;;;;4995396;28;20416;-70
2022/01/06 11:31:46;;;;;;;1.53;0.80;;;2.90;99.90;;;;;;4995215;28;20428;-69
2022/01/06 11:34:20;;;;;;;0.80;0.70;;;2.90;99.90;;;;;;4995158;28;20404;-69
2022/01/06 11:37:00;;;;;;;1.17;0.90;;;2.90;99.90;;;;;;4995124;28;20414;-70
2022/01/06 11:39:36;;;;;;;1.27;0.97;;;3.00;99.90;;;;;;4994994;28;20400;-69
2022/01/06 11:42:41;;;;;;;1.03;0.63;;;3.00;99.90;;;;;;5005504;28;20537;-70
2022/01/06 11:45:18;;;;;;;1.00;0.70;;;3.00;99.90;;;;;;5023655;28;20414;-70
2022/01/06 11:48:05;;;;;;;1.73;1.63;;;3.00;99.90;;;;;;5029201;28;20415;-70
2022/01/06 11:50:48;;;;;;;4.00;1.13;;;3.00;99.90;;;;;;5033922;28;20495;-69
2022/01/06 11:53:23;;;;;;;1.87;0.90;;;3.10;99.90;;;;;;5034052;28;20410;-69
2022/01/06 11:55:52;;;;;;;1.03;0.70;;;3.20;99.90;;;;;;5033901;28;20453;-70
2022/01/06 11:58:24;;;;;;;2.53;0.77;;;3.20;99.90;;;;;;5033724;28;20422;-69
2022/01/06 12:01:08;;;;;;;0.80;0.80;;;3.20;99.90;;;;;;5033691;28;20431;-69
2022/01/06 12:03:41;;;;;;;1.47;0.70;;;3.20;99.90;;;;;;5033798;28;20990;-69
2022/01/06 12:06:22;;;;;;;1.40;1.20;;;3.30;99.90;;;;;;5033529;28;20904;-69
2022/01/06 12:08:57;;;;;;;0.60;0.60;;;3.20;99.90;;;;;;5033486;28;20422;-69
2022/01/06 12:11:30;;;;;;;1.10;1.00;;;3.30;99.90;;;;;;5033485;28;20756;-69
2022/01/06 12:13:59;;;;;;;0.87;0.70;;;3.30;99.90;;;;;;5033546;28;20406;-69
2022/01/06 12:16:33;;;;;;;1.27;0.70;;;3.30;99.90;;;;;;5048854;28;20501;-69
2022/01/06 12:19:00;;;;;;;0.60;0.60;;;3.40;99.90;;;;;;5034049;28;20501;-69
2022/01/06 12:21:26;;;;;;;1.30;0.70;;;3.40;99.90;;;;;;5033679;28;20434;-70
2022/01/06 12:24:05;;;;;;;1.53;0.90;;;3.40;99.90;;;;;;5033410;28;20518;-70
2022/01/06 12:26:31;;;;;;;0.97;0.97;;;3.40;99.90;;;;;;5033339;28;20893;-69
2022/01/06 12:28:57;;;;;;;1.00;1.00;;;3.30;99.90;;;;;;5033387;28;20960;-69
2022/01/06 12:31:25;;;;;;;1.10;1.00;;;3.30;99.90;;;;;;5031496;28;20525;-69
2022/01/06 12:33:58;;;;;;;1.00;0.90;;;3.40;99.90;;;;;;5033013;28;20241;-70
2022/01/06 12:36:24;;;;;;;1.10;0.77;;;3.40;99.90;;;;;;5028786;28;20446;-70
2022/01/06 12:38:49;;;;;;;1.20;1.10;;;3.50;99.90;;;;;;5017148;28;20408;-70
2022/01/06 12:41:17;;;;;;;2.10;0.70;;;3.40;99.90;;;;;;5029427;28;20470;-70
2022/01/06 12:43:43;;;;;;;0.70;0.60;;;3.40;99.90;;;;;;5033088;28;20562;-70
2022/01/06 12:46:18;;;;;;;2.20;1.07;;;3.40;99.90;;;;;;5032848;28;20399;-69
2022/01/06 12:48:49;;;;;;;0.60;0.60;;;3.40;99.90;;;;;;5016561;28;20415;-69
2022/01/06 12:51:20;;;;;;;0.60;0.60;;;3.40;99.90;;;;;;5028191;28;21018;-69
2022/01/06 12:53:48;;;;;;;0.63;0.63;;;3.40;99.90;;;;;;5026582;28;20431;-70
2022/01/06 12:56:22;;;;;;;0.70;0.70;;;3.30;99.90;;;;;;5013227;28;20418;-69
2022/01/06 12:58:48;;;;;;;0.80;0.80;;;3.40;99.90;;;;;;5008549;28;20983;-69
2022/01/06 13:01:14;;;;;;;1.63;0.80;;;3.40;99.90;;;;;;5007236;28;20443;-69
2022/01/06 13:03:42;;;;;;;1.10;0.77;;;3.40;99.90;;;;;;5002708;28;20283;-69
2022/01/06 13:06:11;;;;;;;1.17;0.80;;;3.30;99.90;;;;;;5027358;28;20176;-70